Airfield :
LOGIN :

Register | Disclaimer

   EN    FR    IT 

 










Legend :    VFR   Marginal VFR   IFR   Intensive IFR   Very Intensive IFR
Visi :
Ceiling :
>= 8 km
>= 3000ft
5 to 8 km
1000 to 3000 ft
1500m to 5 km
500 to 1000 ft
800 to 1500m
200 to 500 ft
< 800m
< 200 ft
Symbols :   Thunderstorms  Fog  Heavy snow  Heavy precipitations  Wind > 20 kt
SIGMETs :     Misc.  Thunderstorms  Icing  Turbulence  Mountain Waves  Volcanic Ashes






- Airport Elevation : 215 ft
- IATA code : ABZ


EGPD - Aberdeen / Dyce

CURRENT METAR :
  • 131720Z AUTO 24012KT 9999 NCD 21/12 Q1017 NOSIG

EXPIRED METARs :
  • 131650Z AUTO 23015KT 9999 NCD 22/13 Q1017 NOSIG
  • 131620Z AUTO 22013KT 9999 SCT048 22/13 Q1017 NOSIG
  • 131550Z AUTO 20011KT 180V240 9999 BKN047 22/14 Q1017 NOSIG
  • 131520Z AUTO 20013KT 9999 FEW048 22/13 Q1018 NOSIG
  • 131450Z AUTO 21015KT 9999 NCD 22/14 Q1018 NOSIG

TAF TAF EGPD
Valid from the 13 at 18:00 until the 14 at 18:00 UTC


131656Z 1318/1418 23009KT 9999 SCT040
PROB30
TEMPO 1318/1320 24015G25KT
TEMPO 1400/1404 7000 -RA BKN012
PROB40
TEMPO 1400/1404 4000 RA BKN008
PROB30
TEMPO 1409/1418 27015G28KT



MET'MAP, your aeronautical weather chart ! - Copyright ORBIFLY December 2007 - Disclaimer

ORBIFLY MET'MAP TEAM :

Programming & Development : Alexandra Zaïnal
Concept & original design : Baudouin d'Aumeries
Assistance for programming : Marc-Olivier Méhu
Technical & hardware support : Manuel Goepfert

Contact : metmap@orbifly.com




SOURCES & CREDITS :

   NOAA